sensor_id;sensor_type;location;lat;lon;timestamp;temperature;humidity
17697;DHT22;8967;47.984;7.842;2022-10-26T00:00:32;14.80;99.90
17697;DHT22;8967;47.984;7.842;2022-10-26T00:03:03;14.80;99.90
17697;DHT22;8967;47.984;7.842;2022-10-26T00:05:33;14.70;99.90
17697;DHT22;8967;47.984;7.842;2022-10-26T00:08:02;14.70;99.90
17697;DHT22;8967;47.984;7.842;2022-10-26T00:10:29;14.70;99.90
17697;DHT22;8967;47.984;7.842;2022-10-26T00:12:56;14.70;99.90
17697;DHT22;8967;47.984;7.842;2022-10-26T00:15:23;14.70;99.90
17697;DHT22;8967;47.984;7.842;2022-10-26T00:17:50;14.70;99.90
17697;DHT22;8967;47.984;7.842;2022-10-26T00:20:18;14.70;99.90
17697;DHT22;8967;47.984;7.842;2022-10-26T00:22:45;14.70;99.90
17697;DHT22;8967;47.984;7.842;2022-10-26T00:25:12;14.70;99.90
17697;DHT22;8967;47.984;7.842;2022-10-26T00:27:39;14.70;99.90
17697;DHT22;8967;47.984;7.842;2022-10-26T00:30:08;14.60;99.90
17697;DHT22;8967;47.984;7.842;2022-10-26T00:32:35;14.60;99.90
17697;DHT22;8967;47.984;7.842;2022-10-26T00:35:02;14.60;99.90
17697;DHT22;8967;47.984;7.842;2022-10-26T00:37:30;14.60;99.90
17697;DHT22;8967;47.984;7.842;2022-10-26T00:39:57;14.60;99.90
17697;DHT22;8967;47.984;7.842;2022-10-26T00:42:26;14.60;99.90
17697;DHT22;8967;47.984;7.842;2022-10-26T00:45:00;14.60;99.90
17697;DHT22;8967;47.984;7.842;2022-10-26T00:47:37;14.50;99.90
17697;DHT22;8967;47.984;7.842;2022-10-26T00:50:08;14.50;99.90
17697;DHT22;8967;47.984;7.842;2022-10-26T00:52:37;14.50;99.90
17697;DHT22;8967;47.984;7.842;2022-10-26T00:55:07;14.50;99.90
17697;DHT22;8967;47.984;7.842;2022-10-26T00:57:36;14.50;99.90
17697;DHT22;8967;47.984;7.842;2022-10-26T01:00:04;14.50;99.90
17697;DHT22;8967;47.984;7.842;2022-10-26T01:02:33;14.50;99.90
17697;DHT22;8967;47.984;7.842;2022-10-26T01:05:01;14.50;99.90
17697;DHT22;8967;47.984;7.842;2022-10-26T01:07:29;14.50;99.90
17697;DHT22;8967;47.984;7.842;2022-10-26T01:09:57;14.50;99.90
17697;DHT22;8967;47.984;7.842;2022-10-26T01:12:25;14.50;99.90
17697;DHT22;8967;47.984;7.842;2022-10-26T01:14:51;14.40;99.90
17697;DHT22;8967;47.984;7.842;2022-10-26T01:17:30;14.40;99.90
17697;DHT22;8967;47.984;7.842;2022-10-26T01:20:22;14.40;99.90
17697;DHT22;8967;47.984;7.842;2022-10-26T01:22:56;14.30;99.90
17697;DHT22;8967;47.984;7.842;2022-10-26T01:25:43;14.40;99.90
17697;DHT22;8967;47.984;7.842;2022-10-26T01:28:29;14.40;99.90
17697;DHT22;8967;47.984;7.842;2022-10-26T01:31:02;14.40;99.90
17697;DHT22;8967;47.984;7.842;2022-10-26T01:33:36;14.40;99.90
17697;DHT22;8967;47.984;7.842;2022-10-26T01:36:10;14.40;99.90
17697;DHT22;8967;47.984;7.842;2022-10-26T01:38:44;14.40;99.90
17697;DHT22;8967;47.984;7.842;2022-10-26T01:41:21;14.40;99.90
17697;DHT22;8967;47.984;7.842;2022-10-26T01:43:53;14.40;99.90
17697;DHT22;8967;47.984;7.842;2022-10-26T01:46:23;14.40;99.90
17697;DHT22;8967;47.984;7.842;2022-10-26T01:48:55;14.40;99.90
17697;DHT22;8967;47.984;7.842;2022-10-26T01:51:24;14.40;99.90
17697;DHT22;8967;47.984;7.842;2022-10-26T01:53:52;14.40;99.90
17697;DHT22;8967;47.984;7.842;2022-10-26T01:56:20;14.40;99.90
17697;DHT22;8967;47.984;7.842;2022-10-26T02:02:27;14.50;99.90
17697;DHT22;8967;47.984;7.842;2022-10-26T02:05:14;14.50;99.90
17697;DHT22;8967;47.984;7.842;2022-10-26T02:07:49;14.50;99.90
17697;DHT22;8967;47.984;7.842;2022-10-26T02:10:29;14.50;99.90
17697;DHT22;8967;47.984;7.842;2022-10-26T02:13:01;14.60;99.90
17697;DHT22;8967;47.984;7.842;2022-10-26T02:15:37;14.60;99.90
17697;DHT22;8967;47.984;7.842;2022-10-26T02:18:14;14.60;99.90
17697;DHT22;8967;47.984;7.842;2022-10-26T02:20:49;14.70;99.90
17697;DHT22;8967;47.984;7.842;2022-10-26T02:23:18;14.70;99.90
17697;DHT22;8967;47.984;7.842;2022-10-26T02:25:48;14.70;99.90
17697;DHT22;8967;47.984;7.842;2022-10-26T02:28:18;14.80;99.90
17697;DHT22;8967;47.984;7.842;2022-10-26T02:30:47;14.80;99.90
17697;DHT22;8967;47.984;7.842;2022-10-26T02:33:18;14.80;99.90
17697;DHT22;8967;47.984;7.842;2022-10-26T02:35:49;14.80;99.90
17697;DHT22;8967;47.984;7.842;2022-10-26T02:38:18;14.90;99.90
17697;DHT22;8967;47.984;7.842;2022-10-26T02:40:46;14.90;99.90
17697;DHT22;8967;47.984;7.842;2022-10-26T02:43:15;14.80;99.90
17697;DHT22;8967;47.984;7.842;2022-10-26T02:45:50;14.80;99.90
17697;DHT22;8967;47.984;7.842;2022-10-26T02:48:21;14.80;99.90
17697;DHT22;8967;47.984;7.842;2022-10-26T02:50:58;14.80;99.90
17697;DHT22;8967;47.984;7.842;2022-10-26T02:53:29;14.80;99.90
17697;DHT22;8967;47.984;7.842;2022-10-26T02:56:03;14.80;99.90
17697;DHT22;8967;47.984;7.842;2022-10-26T02:58:33;14.80;99.90
17697;DHT22;8967;47.984;7.842;2022-10-26T03:01:03;14.80;99.90
17697;DHT22;8967;47.984;7.842;2022-10-26T03:03:32;14.80;99.90
17697;DHT22;8967;47.984;7.842;2022-10-26T03:05:59;14.80;99.90
17697;DHT22;8967;47.984;7.842;2022-10-26T03:08:26;14.80;99.90
17697;DHT22;8967;47.984;7.842;2022-10-26T03:10:53;14.80;99.90
17697;DHT22;8967;47.984;7.842;2022-10-26T03:13:20;14.80;99.90
17697;DHT22;8967;47.984;7.842;2022-10-26T03:15:47;14.80;99.90
17697;DHT22;8967;47.984;7.842;2022-10-26T03:18:14;14.90;99.90
17697;DHT22;8967;47.984;7.842;2022-10-26T03:20:44;14.90;99.90
17697;DHT22;8967;47.984;7.842;2022-10-26T03:23:11;14.90;99.90
17697;DHT22;8967;47.984;7.842;2022-10-26T03:25:38;14.90;99.90
17697;DHT22;8967;47.984;7.842;2022-10-26T03:28:05;14.90;99.90
17697;DHT22;8967;47.984;7.842;2022-10-26T03:30:32;14.90;99.90
17697;DHT22;8967;47.984;7.842;2022-10-26T03:32:58;14.90;99.90
17697;DHT22;8967;47.984;7.842;2022-10-26T03:35:28;14.90;99.90
17697;DHT22;8967;47.984;7.842;2022-10-26T03:37:56;14.90;99.90
17697;DHT22;8967;47.984;7.842;2022-10-26T03:40:23;14.90;99.90
17697;DHT22;8967;47.984;7.842;2022-10-26T03:42:50;14.90;99.90
17697;DHT22;8967;47.984;7.842;2022-10-26T03:45:17;14.80;99.90
17697;DHT22;8967;47.984;7.842;2022-10-26T03:47:45;14.80;99.90
17697;DHT22;8967;47.984;7.842;2022-10-26T03:50:14;14.80;99.90
17697;DHT22;8967;47.984;7.842;2022-10-26T03:52:41;14.80;99.90
17697;DHT22;8967;47.984;7.842;2022-10-26T03:55:09;14.80;99.90
17697;DHT22;8967;47.984;7.842;2022-10-26T03:57:39;14.80;99.90
17697;DHT22;8967;47.984;7.842;2022-10-26T04:00:08;14.80;99.90
17697;DHT22;8967;47.984;7.842;2022-10-26T04:02:38;14.90;99.90
17697;DHT22;8967;47.984;7.842;2022-10-26T04:05:06;14.90;99.90
17697;DHT22;8967;47.984;7.842;2022-10-26T04:07:33;14.90;99.90
17697;DHT22;8967;47.984;7.842;2022-10-26T04:10:00;14.90;99.90
17697;DHT22;8967;47.984;7.842;2022-10-26T04:12:28;14.90;99.90
17697;DHT22;8967;47.984;7.842;2022-10-26T04:14:55;14.90;99.90
17697;DHT22;8967;47.984;7.842;2022-10-26T04:17:23;14.90;99.90
17697;DHT22;8967;47.984;7.842;2022-10-26T04:19:52;14.90;99.90
17697;DHT22;8967;47.984;7.842;2022-10-26T04:22:19;15.00;99.90
17697;DHT22;8967;47.984;7.842;2022-10-26T04:24:46;15.00;99.90
17697;DHT22;8967;47.984;7.842;2022-10-26T04:27:14;15.00;99.90
17697;DHT22;8967;47.984;7.842;2022-10-26T04:29:42;15.00;99.90
17697;DHT22;8967;47.984;7.842;2022-10-26T04:32:09;15.00;99.90
17697;DHT22;8967;47.984;7.842;2022-10-26T04:34:36;15.00;99.90
17697;DHT22;8967;47.984;7.842;2022-10-26T04:37:03;15.00;99.90
17697;DHT22;8967;47.984;7.842;2022-10-26T04:39:32;15.00;99.90
17697;DHT22;8967;47.984;7.842;2022-10-26T04:41:59;15.00;99.90
17697;DHT22;8967;47.984;7.842;2022-10-26T04:44:26;15.00;99.90
17697;DHT22;8967;47.984;7.842;2022-10-26T04:46:55;15.00;99.90
17697;DHT22;8967;47.984;7.842;2022-10-26T04:49:22;15.00;99.90
17697;DHT22;8967;47.984;7.842;2022-10-26T04:51:49;15.00;99.90
17697;DHT22;8967;47.984;7.842;2022-10-26T04:54:16;15.00;99.90
17697;DHT22;8967;47.984;7.842;2022-10-26T04:56:43;14.90;99.90
17697;DHT22;8967;47.984;7.842;2022-10-26T04:59:10;14.90;99.90
17697;DHT22;8967;47.984;7.842;2022-10-26T05:01:36;14.90;99.90
17697;DHT22;8967;47.984;7.842;2022-10-26T05:04:05;14.90;99.90
17697;DHT22;8967;47.984;7.842;2022-10-26T05:06:32;14.90;99.90
17697;DHT22;8967;47.984;7.842;2022-10-26T05:08:59;14.90;99.90
17697;DHT22;8967;47.984;7.842;2022-10-26T05:11:30;14.90;99.90
17697;DHT22;8967;47.984;7.842;2022-10-26T05:13:57;14.90;99.90
17697;DHT22;8967;47.984;7.842;2022-10-26T05:16:24;14.90;99.90
17697;DHT22;8967;47.984;7.842;2022-10-26T05:18:50;14.90;99.90
17697;DHT22;8967;47.984;7.842;2022-10-26T05:21:19;14.90;99.90
17697;DHT22;8967;47.984;7.842;2022-10-26T05:23:49;14.90;99.90
17697;DHT22;8967;47.984;7.842;2022-10-26T05:26:17;14.90;99.90
17697;DHT22;8967;47.984;7.842;2022-10-26T05:28:44;14.90;99.90
17697;DHT22;8967;47.984;7.842;2022-10-26T05:31:11;14.80;99.90
17697;DHT22;8967;47.984;7.842;2022-10-26T05:33:38;14.80;99.90
17697;DHT22;8967;47.984;7.842;2022-10-26T05:36:05;14.80;99.90
17697;DHT22;8967;47.984;7.842;2022-10-26T05:38:34;14.80;99.90
17697;DHT22;8967;47.984;7.842;2022-10-26T05:41:01;14.80;99.90
17697;DHT22;8967;47.984;7.842;2022-10-26T05:43:28;14.80;99.90
17697;DHT22;8967;47.984;7.842;2022-10-26T05:45:55;14.80;99.90
17697;DHT22;8967;47.984;7.842;2022-10-26T05:48:22;14.80;99.90
17697;DHT22;8967;47.984;7.842;2022-10-26T05:50:49;14.80;99.90
17697;DHT22;8967;47.984;7.842;2022-10-26T05:53:16;14.80;99.90
17697;DHT22;8967;47.984;7.842;2022-10-26T05:55:44;14.80;99.90
17697;DHT22;8967;47.984;7.842;2022-10-26T05:58:13;14.70;99.90
17697;DHT22;8967;47.984;7.842;2022-10-26T06:00:53;14.80;99.90
17697;DHT22;8967;47.984;7.842;2022-10-26T06:03:35;14.70;99.90
17697;DHT22;8967;47.984;7.842;2022-10-26T06:06:05;14.70;99.90
17697;DHT22;8967;47.984;7.842;2022-10-26T06:08:33;14.70;99.90
17697;DHT22;8967;47.984;7.842;2022-10-26T06:11:02;14.70;99.90
17697;DHT22;8967;47.984;7.842;2022-10-26T06:13:29;14.60;99.90
17697;DHT22;8967;47.984;7.842;2022-10-26T06:16:05;14.70;99.90
17697;DHT22;8967;47.984;7.842;2022-10-26T06:18:42;14.70;99.90
17697;DHT22;8967;47.984;7.842;2022-10-26T06:21:25;14.60;99.90
17697;DHT22;8967;47.984;7.842;2022-10-26T06:23:57;14.70;99.90
17697;DHT22;8967;47.984;7.842;2022-10-26T06:26:35;14.70;99.90
17697;DHT22;8967;47.984;7.842;2022-10-26T06:29:16;14.70;99.90
17697;DHT22;8967;47.984;7.842;2022-10-26T06:31:44;14.70;99.90
17697;DHT22;8967;47.984;7.842;2022-10-26T06:34:16;14.70;99.90
17697;DHT22;8967;47.984;7.842;2022-10-26T06:36:48;14.70;99.90
17697;DHT22;8967;47.984;7.842;2022-10-26T06:39:15;14.70;99.90
17697;DHT22;8967;47.984;7.842;2022-10-26T06:41:45;14.70;99.90
17697;DHT22;8967;47.984;7.842;2022-10-26T06:44:20;14.70;99.90
17697;DHT22;8967;47.984;7.842;2022-10-26T06:46:51;14.70;99.90
17697;DHT22;8967;47.984;7.842;2022-10-26T06:49:26;14.70;99.90
17697;DHT22;8967;47.984;7.842;2022-10-26T06:51:58;14.70;99.90
17697;DHT22;8967;47.984;7.842;2022-10-26T06:54:30;14.70;99.90
17697;DHT22;8967;47.984;7.842;2022-10-26T06:57:03;14.70;99.90
17697;DHT22;8967;47.984;7.842;2022-10-26T06:59:37;14.70;99.90
17697;DHT22;8967;47.984;7.842;2022-10-26T07:02:05;14.70;99.90
17697;DHT22;8967;47.984;7.842;2022-10-26T07:04:32;14.70;99.90
17697;DHT22;8967;47.984;7.842;2022-10-26T07:06:59;14.80;99.90
17697;DHT22;8967;47.984;7.842;2022-10-26T07:09:28;14.70;99.90
17697;DHT22;8967;47.984;7.842;2022-10-26T07:11:55;14.70;99.90
17697;DHT22;8967;47.984;7.842;2022-10-26T07:14:23;14.70;99.90
17697;DHT22;8967;47.984;7.842;2022-10-26T07:16:50;14.70;99.90
17697;DHT22;8967;47.984;7.842;2022-10-26T07:19:17;14.80;99.90
17697;DHT22;8967;47.984;7.842;2022-10-26T07:21:44;14.80;99.90
17697;DHT22;8967;47.984;7.842;2022-10-26T07:24:11;14.80;99.90
17697;DHT22;8967;47.984;7.842;2022-10-26T07:26:38;14.90;99.90
17697;DHT22;8967;47.984;7.842;2022-10-26T07:29:05;14.90;99.90
17697;DHT22;8967;47.984;7.842;2022-10-26T07:31:33;15.00;99.90
17697;DHT22;8967;47.984;7.842;2022-10-26T07:34:00;15.00;99.90
17697;DHT22;8967;47.984;7.842;2022-10-26T07:36:28;15.10;99.90
17697;DHT22;8967;47.984;7.842;2022-10-26T07:38:55;15.20;99.90
17697;DHT22;8967;47.984;7.842;2022-10-26T07:41:22;15.20;99.90
17697;DHT22;8967;47.984;7.842;2022-10-26T07:43:49;15.30;99.90
17697;DHT22;8967;47.984;7.842;2022-10-26T07:46:16;15.30;99.90
17697;DHT22;8967;47.984;7.842;2022-10-26T07:48:44;15.40;99.90
17697;DHT22;8967;47.984;7.842;2022-10-26T07:51:11;15.50;99.90
17697;DHT22;8967;47.984;7.842;2022-10-26T07:53:40;15.50;99.90
17697;DHT22;8967;47.984;7.842;2022-10-26T07:56:09;15.60;99.90
17697;DHT22;8967;47.984;7.842;2022-10-26T07:58:36;15.70;99.90
17697;DHT22;8967;47.984;7.842;2022-10-26T08:01:07;15.70;99.90
17697;DHT22;8967;47.984;7.842;2022-10-26T08:03:37;15.80;99.90
17697;DHT22;8967;47.984;7.842;2022-10-26T08:06:06;15.80;99.90
17697;DHT22;8967;47.984;7.842;2022-10-26T08:08:37;15.90;99.90
17697;DHT22;8967;47.984;7.842;2022-10-26T08:11:04;15.90;99.90
17697;DHT22;8967;47.984;7.842;2022-10-26T08:13:31;16.00;99.90
17697;DHT22;8967;47.984;7.842;2022-10-26T08:16:02;16.10;99.90
17697;DHT22;8967;47.984;7.842;2022-10-26T08:18:29;16.10;99.90
17697;DHT22;8967;47.984;7.842;2022-10-26T08:21:01;16.20;99.90
17697;DHT22;8967;47.984;7.842;2022-10-26T08:23:29;16.30;99.90
17697;DHT22;8967;47.984;7.842;2022-10-26T08:25:57;16.40;99.90
17697;DHT22;8967;47.984;7.842;2022-10-26T08:28:24;16.50;99.90
17697;DHT22;8967;47.984;7.842;2022-10-26T08:30:51;16.60;99.90
17697;DHT22;8967;47.984;7.842;2022-10-26T08:33:18;16.60;99.90
17697;DHT22;8967;47.984;7.842;2022-10-26T08:35:45;16.70;99.90
17697;DHT22;8967;47.984;7.842;2022-10-26T08:38:12;16.70;99.90
17697;DHT22;8967;47.984;7.842;2022-10-26T08:40:42;16.80;99.90
17697;DHT22;8967;47.984;7.842;2022-10-26T08:43:14;16.90;99.90
17697;DHT22;8967;47.984;7.842;2022-10-26T08:45:48;16.90;99.90
17697;DHT22;8967;47.984;7.842;2022-10-26T08:48:20;17.00;99.90
17697;DHT22;8967;47.984;7.842;2022-10-26T08:50:51;17.00;99.90
17697;DHT22;8967;47.984;7.842;2022-10-26T08:53:21;17.10;99.90
17697;DHT22;8967;47.984;7.842;2022-10-26T08:55:55;17.10;99.90
17697;DHT22;8967;47.984;7.842;2022-10-26T08:58:27;17.20;99.90
17697;DHT22;8967;47.984;7.842;2022-10-26T09:00:55;17.20;99.90
17697;DHT22;8967;47.984;7.842;2022-10-26T09:03:23;17.30;99.90
17697;DHT22;8967;47.984;7.842;2022-10-26T09:06:14;17.30;99.90
17697;DHT22;8967;47.984;7.842;2022-10-26T09:08:50;17.30;99.90
17697;DHT22;8967;47.984;7.842;2022-10-26T09:11:29;17.40;99.90
17697;DHT22;8967;47.984;7.842;2022-10-26T09:14:06;17.40;99.90
17697;DHT22;8967;47.984;7.842;2022-10-26T09:16:39;17.50;99.90
17697;DHT22;8967;47.984;7.842;2022-10-26T09:19:28;17.50;99.90
17697;DHT22;8967;47.984;7.842;2022-10-26T09:22:02;17.60;99.90
17697;DHT22;8967;47.984;7.842;2022-10-26T09:24:31;17.60;99.90
17697;DHT22;8967;47.984;7.842;2022-10-26T09:27:06;17.70;99.90
17697;DHT22;8967;47.984;7.842;2022-10-26T09:29:39;17.70;99.90
17697;DHT22;8967;47.984;7.842;2022-10-26T09:32:13;17.80;99.90
17697;DHT22;8967;47.984;7.842;2022-10-26T09:34:46;17.80;99.90
17697;DHT22;8967;47.984;7.842;2022-10-26T09:37:18;18.00;99.90
17697;DHT22;8967;47.984;7.842;2022-10-26T09:39:52;18.00;99.90
17697;DHT22;8967;47.984;7.842;2022-10-26T09:42:26;18.10;99.90
17697;DHT22;8967;47.984;7.842;2022-10-26T09:45:00;18.20;99.90
17697;DHT22;8967;47.984;7.842;2022-10-26T09:47:33;18.30;99.90
17697;DHT22;8967;47.984;7.842;2022-10-26T09:50:17;18.40;99.90
17697;DHT22;8967;47.984;7.842;2022-10-26T09:52:46;18.50;99.90
17697;DHT22;8967;47.984;7.842;2022-10-26T09:55:13;18.60;99.90
17697;DHT22;8967;47.984;7.842;2022-10-26T09:57:45;18.70;99.90
17697;DHT22;8967;47.984;7.842;2022-10-26T10:00:14;18.80;99.90
17697;DHT22;8967;47.984;7.842;2022-10-26T10:02:46;18.80;99.90
17697;DHT22;8967;47.984;7.842;2022-10-26T10:05:26;18.90;99.90
17697;DHT22;8967;47.984;7.842;2022-10-26T10:08:09;18.90;99.90
17697;DHT22;8967;47.984;7.842;2022-10-26T10:10:37;18.90;99.90
17697;DHT22;8967;47.984;7.842;2022-10-26T10:13:18;18.90;99.90
17697;DHT22;8967;47.984;7.842;2022-10-26T10:15:59;19.00;99.90
17697;DHT22;8967;47.984;7.842;2022-10-26T10:18:27;19.00;99.90
17697;DHT22;8967;47.984;7.842;2022-10-26T10:20:55;19.10;99.90
17697;DHT22;8967;47.984;7.842;2022-10-26T10:23:30;19.10;99.90
17697;DHT22;8967;47.984;7.842;2022-10-26T10:26:00;19.20;99.90
17697;DHT22;8967;47.984;7.842;2022-10-26T10:28:29;19.30;99.90
17697;DHT22;8967;47.984;7.842;2022-10-26T10:30:57;19.30;99.90
17697;DHT22;8967;47.984;7.842;2022-10-26T10:33:36;19.40;99.90
17697;DHT22;8967;47.984;7.842;2022-10-26T10:36:06;19.40;99.90
17697;DHT22;8967;47.984;7.842;2022-10-26T10:38:38;19.50;99.90
17697;DHT22;8967;47.984;7.842;2022-10-26T10:41:15;19.50;99.80
17697;DHT22;8967;47.984;7.842;2022-10-26T10:43:48;19.50;99.70
17697;DHT22;8967;47.984;7.842;2022-10-26T10:46:21;19.50;99.60
17697;DHT22;8967;47.984;7.842;2022-10-26T10:48:52;19.50;99.60
17697;DHT22;8967;47.984;7.842;2022-10-26T10:51:21;19.50;99.70
17697;DHT22;8967;47.984;7.842;2022-10-26T10:53:50;19.50;99.60
17697;DHT22;8967;47.984;7.842;2022-10-26T10:56:32;19.40;99.40
17697;DHT22;8967;47.984;7.842;2022-10-26T10:59:24;19.50;99.50
17697;DHT22;8967;47.984;7.842;2022-10-26T11:02:05;19.50;99.30
17697;DHT22;8967;47.984;7.842;2022-10-26T11:04:52;19.50;99.20
17697;DHT22;8967;47.984;7.842;2022-10-26T11:07:25;19.50;99.20
17697;DHT22;8967;47.984;7.842;2022-10-26T11:09:54;19.60;99.30
17697;DHT22;8967;47.984;7.842;2022-10-26T11:12:25;19.60;99.30
17697;DHT22;8967;47.984;7.842;2022-10-26T11:14:59;19.60;99.40
17697;DHT22;8967;47.984;7.842;2022-10-26T11:17:29;19.60;99.20
17697;DHT22;8967;47.984;7.842;2022-10-26T11:20:00;19.70;99.20
17697;DHT22;8967;47.984;7.842;2022-10-26T11:22:34;19.70;99.30
17697;DHT22;8967;47.984;7.842;2022-10-26T11:25:04;19.70;99.40
17697;DHT22;8967;47.984;7.842;2022-10-26T11:27:41;19.70;99.40
17697;DHT22;8967;47.984;7.842;2022-10-26T11:30:16;19.70;99.40
17697;DHT22;8967;47.984;7.842;2022-10-26T11:32:46;19.80;99.20
17697;DHT22;8967;47.984;7.842;2022-10-26T11:35:19;19.80;99.20
17697;DHT22;8967;47.984;7.842;2022-10-26T11:37:57;19.80;98.90
17697;DHT22;8967;47.984;7.842;2022-10-26T11:40:32;19.90;98.60
17697;DHT22;8967;47.984;7.842;2022-10-26T11:43:07;19.90;98.40
17697;DHT22;8967;47.984;7.842;2022-10-26T11:45:41;19.90;98.50
17697;DHT22;8967;47.984;7.842;2022-10-26T11:48:15;19.90;98.40
17697;DHT22;8967;47.984;7.842;2022-10-26T11:50:47;19.90;98.50
17697;DHT22;8967;47.984;7.842;2022-10-26T11:53:17;19.90;98.30
17697;DHT22;8967;47.984;7.842;2022-10-26T11:55:47;19.90;98.10
17697;DHT22;8967;47.984;7.842;2022-10-26T11:58:16;20.00;98.20
17697;DHT22;8967;47.984;7.842;2022-10-26T12:00:47;20.00;97.80
17697;DHT22;8967;47.984;7.842;2022-10-26T12:03:18;20.00;97.50
17697;DHT22;8967;47.984;7.842;2022-10-26T12:05:49;20.00;97.50
17697;DHT22;8967;47.984;7.842;2022-10-26T12:08:21;20.00;97.40
17697;DHT22;8967;47.984;7.842;2022-10-26T12:10:58;20.10;97.30
17697;DHT22;8967;47.984;7.842;2022-10-26T12:13:30;20.00;97.20
17697;DHT22;8967;47.984;7.842;2022-10-26T12:16:05;20.00;97.30
17697;DHT22;8967;47.984;7.842;2022-10-26T12:18:41;20.10;97.60
17697;DHT22;8967;47.984;7.842;2022-10-26T12:21:10;20.10;97.20
17697;DHT22;8967;47.984;7.842;2022-10-26T12:23:53;20.20;97.00
17697;DHT22;8967;47.984;7.842;2022-10-26T12:26:51;20.20;97.00
17697;DHT22;8967;47.984;7.842;2022-10-26T12:29:45;20.20;96.80
17697;DHT22;8967;47.984;7.842;2022-10-26T12:32:52;20.20;96.80
17697;DHT22;8967;47.984;7.842;2022-10-26T12:35:43;20.20;96.90
17697;DHT22;8967;47.984;7.842;2022-10-26T12:41:22;20.20;96.70
17697;DHT22;8967;47.984;7.842;2022-10-26T12:43:54;20.20;96.70
17697;DHT22;8967;47.984;7.842;2022-10-26T12:46:40;20.20;96.80
17697;DHT22;8967;47.984;7.842;2022-10-26T12:52:49;20.30;96.20
17697;DHT22;8967;47.984;7.842;2022-10-26T12:55:51;20.30;96.20
17697;DHT22;8967;47.984;7.842;2022-10-26T12:58:39;20.30;96.20
17697;DHT22;8967;47.984;7.842;2022-10-26T13:07:23;20.30;96.00
17697;DHT22;8967;47.984;7.842;2022-10-26T13:09:57;20.30;95.80
17697;DHT22;8967;47.984;7.842;2022-10-26T13:12:26;20.30;95.80
17697;DHT22;8967;47.984;7.842;2022-10-26T13:15:00;20.30;95.80
17697;DHT22;8967;47.984;7.842;2022-10-26T13:17:31;20.30;95.90
17697;DHT22;8967;47.984;7.842;2022-10-26T13:19:59;20.30;96.00
17697;DHT22;8967;47.984;7.842;2022-10-26T13:22:27;20.30;96.10
17697;DHT22;8967;47.984;7.842;2022-10-26T13:24:58;20.30;96.20
17697;DHT22;8967;47.984;7.842;2022-10-26T13:27:43;20.30;96.60
17697;DHT22;8967;47.984;7.842;2022-10-26T13:30:41;20.30;96.30
17697;DHT22;8967;47.984;7.842;2022-10-26T13:33:18;20.30;96.30
17697;DHT22;8967;47.984;7.842;2022-10-26T13:35:47;20.30;96.50
17697;DHT22;8967;47.984;7.842;2022-10-26T13:38:18;20.30;96.20
17697;DHT22;8967;47.984;7.842;2022-10-26T13:40:55;20.30;96.10
17697;DHT22;8967;47.984;7.842;2022-10-26T13:43:27;20.30;96.10
17697;DHT22;8967;47.984;7.842;2022-10-26T13:45:55;20.30;96.00
17697;DHT22;8967;47.984;7.842;2022-10-26T13:48:32;20.30;95.90
17697;DHT22;8967;47.984;7.842;2022-10-26T13:51:02;20.30;96.00
17697;DHT22;8967;47.984;7.842;2022-10-26T13:53:37;20.30;96.00
17697;DHT22;8967;47.984;7.842;2022-10-26T13:56:18;20.30;96.20
17697;DHT22;8967;47.984;7.842;2022-10-26T13:58:51;20.30;96.30
17697;DHT22;8967;47.984;7.842;2022-10-26T14:01:20;20.30;96.30
17697;DHT22;8967;47.984;7.842;2022-10-26T14:03:48;20.30;96.30
17697;DHT22;8967;47.984;7.842;2022-10-26T14:06:20;20.30;96.20
17697;DHT22;8967;47.984;7.842;2022-10-26T14:08:53;20.20;96.20
17697;DHT22;8967;47.984;7.842;2022-10-26T14:11:29;20.20;96.30
17697;DHT22;8967;47.984;7.842;2022-10-26T14:13:57;20.20;96.30
17697;DHT22;8967;47.984;7.842;2022-10-26T14:16:28;20.20;96.40
17697;DHT22;8967;47.984;7.842;2022-10-26T14:18:58;20.20;96.30
17697;DHT22;8967;47.984;7.842;2022-10-26T14:21:25;20.20;96.00
17697;DHT22;8967;47.984;7.842;2022-10-26T14:23:55;20.20;96.30
17697;DHT22;8967;47.984;7.842;2022-10-26T14:26:25;20.20;96.40
17697;DHT22;8967;47.984;7.842;2022-10-26T14:28:54;20.20;96.00
17697;DHT22;8967;47.984;7.842;2022-10-26T14:31:24;20.20;96.00
17697;DHT22;8967;47.984;7.842;2022-10-26T14:33:52;20.20;96.20
17697;DHT22;8967;47.984;7.842;2022-10-26T14:36:22;20.20;96.40
17697;DHT22;8967;47.984;7.842;2022-10-26T14:38:54;20.20;96.40
17697;DHT22;8967;47.984;7.842;2022-10-26T14:41:25;20.20;96.40
17697;DHT22;8967;47.984;7.842;2022-10-26T14:43:54;20.10;96.20
17697;DHT22;8967;47.984;7.842;2022-10-26T14:46:22;20.10;96.20
17697;DHT22;8967;47.984;7.842;2022-10-26T14:48:54;20.10;96.30
17697;DHT22;8967;47.984;7.842;2022-10-26T14:51:28;20.00;96.40
17697;DHT22;8967;47.984;7.842;2022-10-26T14:53:57;20.00;96.40
17697;DHT22;8967;47.984;7.842;2022-10-26T14:56:30;20.00;96.50
17697;DHT22;8967;47.984;7.842;2022-10-26T14:59:09;20.00;96.70
17697;DHT22;8967;47.984;7.842;2022-10-26T15:01:48;20.00;96.70
17697;DHT22;8967;47.984;7.842;2022-10-26T15:04:27;19.90;96.80
17697;DHT22;8967;47.984;7.842;2022-10-26T15:07:01;19.90;97.00
17697;DHT22;8967;47.984;7.842;2022-10-26T15:09:31;19.90;97.10
17697;DHT22;8967;47.984;7.842;2022-10-26T15:12:03;19.90;97.10
17697;DHT22;8967;47.984;7.842;2022-10-26T15:14:30;19.90;97.20
17697;DHT22;8967;47.984;7.842;2022-10-26T15:16:59;19.80;97.40
17697;DHT22;8967;47.984;7.842;2022-10-26T15:19:27;19.80;97.50
17697;DHT22;8967;47.984;7.842;2022-10-26T15:21:56;19.80;97.60
17697;DHT22;8967;47.984;7.842;2022-10-26T15:24:28;19.70;97.90
17697;DHT22;8967;47.984;7.842;2022-10-26T15:26:56;19.70;97.70
17697;DHT22;8967;47.984;7.842;2022-10-26T15:29:44;19.70;97.80
17697;DHT22;8967;47.984;7.842;2022-10-26T15:32:27;19.60;98.00
17697;DHT22;8967;47.984;7.842;2022-10-26T15:35:13;19.60;98.20
17697;DHT22;8967;47.984;7.842;2022-10-26T15:37:41;19.60;98.40
17697;DHT22;8967;47.984;7.842;2022-10-26T15:40:08;19.50;98.50
17697;DHT22;8967;47.984;7.842;2022-10-26T15:42:37;19.50;98.80
17697;DHT22;8967;47.984;7.842;2022-10-26T15:45:14;19.40;99.00
17697;DHT22;8967;47.984;7.842;2022-10-26T15:47:41;19.40;99.30
17697;DHT22;8967;47.984;7.842;2022-10-26T15:50:11;19.30;99.80
17697;DHT22;8967;47.984;7.842;2022-10-26T15:52:38;19.30;99.70
17697;DHT22;8967;47.984;7.842;2022-10-26T15:55:06;19.20;99.80
17697;DHT22;8967;47.984;7.842;2022-10-26T15:57:34;19.20;99.90
17697;DHT22;8967;47.984;7.842;2022-10-26T16:00:01;19.20;99.90
17697;DHT22;8967;47.984;7.842;2022-10-26T16:02:33;19.10;99.90
17697;DHT22;8967;47.984;7.842;2022-10-26T16:05:02;19.00;99.90
17697;DHT22;8967;47.984;7.842;2022-10-26T16:07:31;19.00;99.90
17697;DHT22;8967;47.984;7.842;2022-10-26T16:09:58;19.00;99.90
17697;DHT22;8967;47.984;7.842;2022-10-26T16:12:25;18.90;99.90
17697;DHT22;8967;47.984;7.842;2022-10-26T16:14:52;18.90;99.90
17697;DHT22;8967;47.984;7.842;2022-10-26T16:17:19;18.80;99.90
17697;DHT22;8967;47.984;7.842;2022-10-26T16:19:47;18.80;99.90
17697;DHT22;8967;47.984;7.842;2022-10-26T16:22:15;18.80;99.90
17697;DHT22;8967;47.984;7.842;2022-10-26T16:24:42;18.70;99.90
17697;DHT22;8967;47.984;7.842;2022-10-26T16:27:09;18.70;99.90